Zhoushuizi Airport
ZYTL : now visible

Airfield :











YOU CAN JOIN US ON...

 
LOGIN :

Register | Disclaimer

   EN    FR    IT 

 









Legend :    VFR   Marginal VFR   IFR   Intensive IFR   Very Intensive IFR
Visi :
Ceiling :
>= 8 km
>= 3000ft
5 to 8 km
1000 to 3000 ft
1500m to 5 km
500 to 1000 ft
800 to 1500m
200 to 500 ft
< 800m
< 200 ft
Symbols :   Thunderstorms  Fog  Heavy snow  Heavy precipitations  Wind > 20 kt






- Airport Elevation : 107 ft
- IATA code : DLC


ZYTL - Zhoushuizi

CURRENT METAR :
  • 182330Z 24003MPS 190V270 4000 BR NSC 30/25 Q1001 NOSIG

EXPIRED METARs :
  • 182300Z 10001MPS 3500 BR NSC 29/25 Q1000 NOSIG
  • 182230Z VRB01MPS 3000 BR NSC 28/25 Q1000 NOSIG
  • 182200Z 27003MPS 3000 BR NSC 27/24 Q1000 NOSIG
  • 182130Z 27003MPS 4000 BR NSC 26/23 Q1000 NOSIG
  • 182100Z VRB01MPS 5000 BR NSC 26/23 Q1000 NOSIG
  • 182030Z VRB01MPS 5000 BR NSC 26/22 Q0999 NOSIG
  • 182000Z VRB01MPS CAVOK 26/22 Q0999 NOSIG
  • 181930Z VRB01MPS CAVOK 27/21 Q0999 NOSIG
  • 181900Z 19002MPS 110V230 CAVOK 27/21 Q0999 NOSIG

TAF TAF ZYTL
Valid from the 19 at 00:00 until the 20 at 00:00 UTC


182103Z 1900/1924 23004MPS 5000 BR NSC TX34/1906Z TN25/1921Z
ZYSH FIR / Asia



MET'MAP, your aeronautical weather chart ! - Copyright ORBIFLY December 2007 - Disclaimer

ORBIFLY MET'MAP TEAM :

Programming & Development : Alexandra Zaïnal
Original concept : Baudouin d'Aumeries
Technical & hardware support : Manuel Goepfert
Assistance : Marc-Olivier Méhu




SOURCES & CREDITS :

   NOAA       Earth
Advisory